Time;durP1;ratioP1;P1;durP2;ratioP2;P2;SDS_P1;SDS_P2;PMS_P1;PMS_P2;Temp;Humidity;BMP_temperature;BMP_pressure;BME280_temperature;BME280_humidity;BME280_pressure;Samples;Min_cycle;Max_cycle;Signal;HPM_P1;HPM_P2
2022/03/07 00:00:24;;;;;;;36.00;13.02;;;;;;;-149.78;100.00;50551.63;4807076;29;20054;-71
2022/03/07 00:02:50;;;;;;;37.55;14.35;;;;;;;-149.78;100.00;50553.59;4806993;29;20050;-70
2022/03/07 00:05:16;;;;;;;41.10;14.68;;;;;;;-149.78;100.00;50563.38;4807055;29;20076;-71
2022/03/07 00:07:41;;;;;;;45.78;16.30;;;;;;;-149.78;100.00;50541.84;4822084;29;20066;-71
2022/03/07 00:10:07;;;;;;;40.90;15.60;;;;;;;-149.78;100.00;50561.41;4822320;29;20063;-70
2022/03/07 00:12:33;;;;;;;44.75;16.85;;;;;;;-149.78;100.00;50537.94;4806917;29;20050;-71
2022/03/07 00:14:58;;;;;;;41.85;15.10;;;;;;;-149.78;100.00;50553.59;4791815;29;20065;-70
2022/03/07 00:17:24;;;;;;;47.35;15.98;;;;;;;-149.78;100.00;50545.75;4823339;29;20178;-71
2022/03/07 00:19:50;;;;;;;69.03;24.27;;;;;;;-149.78;100.00;50545.75;4823294;29;20475;-71
2022/03/07 00:22:15;;;;;;;64.45;21.85;;;;;;;-149.78;100.00;50549.69;4806907;29;20038;-71
2022/03/07 00:24:41;;;;;;;69.20;24.58;;;;;;;-149.78;100.00;50590.75;4823065;29;20061;-70
2022/03/07 00:27:06;;;;;;;45.03;16.95;;;;;;;-149.78;100.00;50522.28;4823116;29;20034;-71
2022/03/07 00:29:32;;;;;;;44.83;18.02;;;;;;;-149.78;100.00;50610.31;4823177;29;20034;-71
2022/03/07 00:31:58;;;;;;;36.55;14.88;;;;;;;-149.78;100.00;50575.09;4823091;29;20034;-70
2022/03/07 00:34:24;;;;;;;45.50;16.25;;;;;;;-149.78;100.00;50565.31;4821818;29;20062;-71
2022/03/07 00:36:50;;;;;;;48.55;17.30;;;;;;;-149.78;100.00;50541.84;4806488;29;20050;-71
2022/03/07 00:39:15;;;;;;;51.25;18.80;;;;;;;-149.78;100.00;50518.38;4823191;29;20042;-71
2022/03/07 00:41:42;;;;;;;51.17;19.60;;;;;;;-149.78;100.00;50563.38;4823011;29;20057;-71
2022/03/07 00:44:07;;;;;;;59.38;20.75;;;;;;;-149.78;100.00;50518.38;4806765;29;20035;-71
2022/03/07 00:46:33;;;;;;;64.65;22.30;;;;;;;-149.78;100.00;50530.13;4822991;29;20046;-71
2022/03/07 00:48:59;;;;;;;52.33;20.15;;;;;;;-149.78;100.00;50561.41;4806465;29;20056;-71
2022/03/07 00:51:25;;;;;;;48.17;16.98;;;;;;;-149.78;100.00;50580.97;4806437;29;20065;-71
2022/03/07 00:53:50;;;;;;;47.85;16.20;;;;;;;-149.78;100.00;50547.72;4821539;29;20042;-71
2022/03/07 00:56:16;;;;;;;40.05;14.63;;;;;;;-149.78;100.00;50545.75;4822879;29;20042;-71
2022/03/07 00:58:41;;;;;;;37.58;15.60;;;;;;;-149.78;100.00;50534.03;4806481;29;20043;-71
2022/03/07 01:01:07;;;;;;;43.80;15.80;;;;;;;-149.78;100.00;50537.94;4822958;29;20038;-71
2022/03/07 01:03:33;;;;;;;49.95;16.95;;;;;;;-149.78;100.00;50553.59;4822807;29;20163;-68
2022/03/07 01:05:59;;;;;;;41.90;15.18;;;;;;;-149.78;100.00;50588.78;4793718;29;20244;-70
2022/03/07 01:08:26;;;;;;;43.67;15.70;;;;;;;-149.78;100.00;50573.16;4809578;29;20050;-71
2022/03/07 01:10:52;;;;;;;41.70;15.43;;;;;;;-149.78;100.00;50565.31;4825998;29;20042;-71
2022/03/07 01:13:18;;;;;;;41.70;15.73;;;;;;;-149.78;100.00;50580.97;4794755;29;20065;-71
2022/03/07 01:15:45;;;;;;;37.20;14.35;;;;;;;-149.78;100.00;50584.88;4809790;29;20050;-71
2022/03/07 01:18:11;;;;;;;44.13;15.88;;;;;;;-149.78;100.00;50547.72;4825888;29;20517;-71
2022/03/07 01:20:37;;;;;;;35.90;13.85;;;;;;;-149.78;100.00;50565.31;4817126;29;20050;-71
2022/03/07 01:23:04;;;;;;;49.75;15.25;;;;;;;-149.78;100.00;50534.03;4803490;29;20381;-71
2022/03/07 01:25:30;;;;;;;43.42;15.75;;;;;;;-149.78;100.00;50553.59;4789838;30;20050;-71
2022/03/07 01:27:56;;;;;;;43.03;14.15;;;;;;;-149.78;100.00;50534.03;4818891;29;20046;-71
2022/03/07 01:30:22;;;;;;;38.88;15.13;;;;;;;-149.78;100.00;50537.94;4809542;29;20044;-71
2022/03/07 01:32:48;;;;;;;35.83;14.98;;;;;;;-149.78;100.00;50541.84;4809179;29;20034;-71
2022/03/07 01:35:14;;;;;;;34.55;13.90;;;;;;;-149.78;100.00;50561.41;4809415;29;20395;-71
2022/03/07 01:37:40;;;;;;;42.67;15.25;;;;;;;-149.78;100.00;50563.38;4809221;29;20567;-71
2022/03/07 01:40:06;;;;;;;32.92;14.45;;;;;;;-149.78;100.00;50557.50;4824483;29;20034;-71
2022/03/07 01:42:31;;;;;;;33.97;14.48;;;;;;;-149.78;100.00;50543.81;4809210;29;20039;-71
2022/03/07 01:45:12;;;;;;;36.80;14.52;;;;;;;-149.78;100.00;50561.41;4824412;29;20434;-72
2022/03/07 01:47:38;;;;;;;32.78;13.43;;;;;;;-149.78;100.00;50541.84;4808975;29;20073;-71
2022/03/07 01:50:06;;;;;;;40.13;14.65;;;;;;;-149.78;100.00;50510.56;4794937;29;20043;-71
2022/03/07 01:52:35;;;;;;;37.45;13.45;;;;;;;-149.78;100.00;50553.59;4805951;29;20357;-71
2022/03/07 01:55:00;;;;;;;30.27;13.82;;;;;;;-149.78;100.00;50535.97;4807066;29;20129;-71
2022/03/07 01:57:29;;;;;;;38.40;15.32;;;;;;;-149.78;100.00;50569.22;4807070;29;20081;-71
2022/03/07 01:59:57;;;;;;;33.90;13.30;;;;;;;-149.78;100.00;50553.59;4806811;29;20096;-71
2022/03/07 02:02:24;;;;;;;37.58;13.02;;;;;;;-149.78;100.00;50537.94;4806698;29;20042;-71
2022/03/07 02:04:52;;;;;;;31.45;12.63;;;;;;;-149.78;100.00;50592.72;4807000;29;20035;-71
2022/03/07 02:07:18;;;;;;;43.20;13.70;;;;;;;-149.78;100.00;50565.31;4790992;29;20649;-72
2022/03/07 02:09:44;;;;;;;39.75;13.98;;;;;;;-149.78;100.00;50600.53;4807136;29;20051;-71
2022/03/07 02:12:10;;;;;;;33.25;13.75;;;;;;;-149.78;100.00;50545.75;4790899;29;20050;-71
2022/03/07 02:14:35;;;;;;;31.88;12.50;;;;;;;-149.78;100.00;50553.59;4790751;29;20039;-71
2022/03/07 02:17:01;;;;;;;33.80;14.43;;;;;;;-149.78;100.00;50545.75;4806821;29;20399;-71
2022/03/07 02:19:27;;;;;;;37.33;13.23;;;;;;;-149.78;100.00;50537.94;4805658;29;20492;-72
2022/03/07 02:22:03;;;;;;;36.90;14.35;;;;;;;-149.78;100.00;50545.75;4813472;29;20042;-71
2022/03/07 02:24:29;;;;;;;30.80;12.10;;;;;;;-149.78;100.00;50547.72;4808536;29;20077;-71
2022/03/07 02:27:04;;;;;;;37.40;13.00;;;;;;;-149.78;100.00;50549.69;4820315;29;20077;-71
2022/03/07 02:29:30;;;;;;;39.80;13.02;;;;;;;-149.78;100.00;50534.03;4787236;29;20035;-71
2022/03/07 02:31:56;;;;;;;35.78;12.20;;;;;;;-149.78;100.00;50573.16;4788546;30;20527;-71
2022/03/07 02:34:22;;;;;;;40.38;12.73;;;;;;;-149.78;100.00;50584.88;4788456;30;20142;-72
2022/03/07 02:36:47;;;;;;;41.03;11.93;;;;;;;-149.78;100.00;50535.97;4772271;30;20091;-71
2022/03/07 02:39:14;;;;;;;33.58;11.60;;;;;;;-149.78;100.00;50530.13;4787470;30;20050;-72
2022/03/07 02:41:41;;;;;;;31.30;11.45;;;;;;;-149.78;100.00;50545.75;4788472;30;20043;-71
2022/03/07 02:44:07;;;;;;;28.38;11.90;;;;;;;-149.78;100.00;50532.06;4787304;30;20043;-71
2022/03/07 02:46:33;;;;;;;27.50;11.63;;;;;;;-149.78;100.00;50530.13;4787157;30;20031;-71
2022/03/07 02:48:58;;;;;;;36.97;12.20;;;;;;;-149.78;100.00;50559.47;4790334;29;20095;-71
2022/03/07 02:51:24;;;;;;;32.20;11.30;;;;;;;-149.78;100.00;50532.06;4788590;29;20111;-71
2022/03/07 02:53:50;;;;;;;37.03;12.95;;;;;;;-149.78;100.00;50549.69;4806074;29;20100;-71
2022/03/07 02:56:16;;;;;;;42.15;13.90;;;;;;;-149.78;100.00;50532.06;4804964;29;20554;-71
2022/03/07 02:58:43;;;;;;;44.33;12.73;;;;;;;-149.78;100.00;50563.38;4805559;29;20043;-71
2022/03/07 03:01:09;;;;;;;29.92;12.07;;;;;;;-149.78;100.00;50532.06;4813651;29;20042;-71
2022/03/07 03:03:35;;;;;;;41.72;12.88;;;;;;;-149.78;100.00;50561.41;4822722;29;20030;-71
2022/03/07 03:06:01;;;;;;;27.08;11.90;;;;;;;-149.78;100.00;50543.81;4822889;29;20774;-71
2022/03/07 03:08:27;;;;;;;33.65;12.63;;;;;;;-149.78;100.00;50557.50;4805107;29;20065;-71
2022/03/07 03:10:55;;;;;;;34.75;11.98;;;;;;;-149.78;100.00;50577.06;4811892;29;20038;-71
2022/03/07 03:13:22;;;;;;;33.25;12.93;;;;;;;-149.78;100.00;50549.69;4823889;29;20041;-71
2022/03/07 03:15:49;;;;;;;35.03;12.68;;;;;;;-149.78;100.00;50565.31;4823769;29;20042;-70
2022/03/07 03:18:15;;;;;;;32.80;11.75;;;;;;;-149.78;100.00;50524.25;4807591;29;20107;-71
2022/03/07 03:20:42;;;;;;;29.05;11.93;;;;;;;-149.78;100.00;50580.97;4823828;29;20034;-71
2022/03/07 03:23:08;;;;;;;31.95;12.55;;;;;;;-149.78;100.00;50555.53;4822710;29;20051;-71
2022/03/07 03:25:33;;;;;;;31.60;12.07;;;;;;;-149.78;100.00;50584.88;4823919;29;20043;-71
2022/03/07 03:27:59;;;;;;;28.63;10.90;;;;;;;-149.78;100.00;50569.22;4816679;29;20035;-71
2022/03/07 03:30:25;;;;;;;27.23;11.00;;;;;;;-149.78;100.00;50537.94;4822602;29;20045;-71
2022/03/07 03:32:51;;;;;;;26.33;10.75;;;;;;;-149.78;100.00;50577.06;4823689;29;20115;-71
2022/03/07 03:35:16;;;;;;;25.52;11.07;;;;;;;-149.78;100.00;50553.59;4823787;29;20376;-71
2022/03/07 03:37:42;;;;;;;28.52;11.57;;;;;;;-149.78;100.00;50596.63;4823653;29;20038;-70
2022/03/07 03:40:11;;;;;;;35.28;11.50;;;;;;;-149.78;100.00;50557.50;4807251;29;20094;-71
2022/03/07 03:42:37;;;;;;;27.90;10.98;;;;;;;-149.78;100.00;50600.53;4823661;29;20034;-71
2022/03/07 03:45:05;;;;;;;26.95;11.50;;;;;;;-149.78;100.00;50592.72;4823613;29;20178;-71
2022/03/07 03:47:42;;;;;;;40.95;12.23;;;;;;;-149.78;100.00;50573.16;4823443;29;20045;-71
2022/03/07 03:50:12;;;;;;;29.30;13.15;;;;;;;-149.78;100.00;50608.34;4823571;29;20046;-71
2022/03/07 03:52:39;;;;;;;34.65;11.57;;;;;;;-149.78;100.00;50555.53;4807080;29;20042;-71
2022/03/07 03:55:06;;;;;;;27.63;11.68;;;;;;;-149.78;100.00;50553.59;4807004;29;20129;-71
2022/03/07 03:57:33;;;;;;;27.08;11.68;;;;;;;-149.78;100.00;50569.22;4800995;29;20534;-71
2022/03/07 04:00:01;;;;;;;28.77;11.05;;;;;;;-149.78;100.00;50569.22;4803066;29;20058;-71
2022/03/07 04:02:26;;;;;;;26.33;11.07;;;;;;;-149.78;100.00;50584.88;4803976;29;20034;-71
2022/03/07 04:04:52;;;;;;;27.73;10.75;;;;;;;-149.78;100.00;50584.88;4805247;29;20085;-70
2022/03/07 04:07:17;;;;;;;27.58;9.82;;;;;;;-149.78;100.00;50553.59;4798626;29;20043;-71
2022/03/07 04:09:43;;;;;;;27.77;10.40;;;;;;;-149.78;100.00;50565.31;4806845;29;20050;-71
2022/03/07 04:12:09;;;;;;;29.88;9.88;;;;;;;-149.78;100.00;50557.50;4823176;29;20049;-71
2022/03/07 04:14:35;;;;;;;31.40;10.65;;;;;;;-149.78;100.00;50553.59;4806659;29;20062;-71
2022/03/07 04:17:01;;;;;;;29.40;10.80;;;;;;;-149.78;100.00;50565.31;4775499;29;20053;-71
2022/03/07 04:19:27;;;;;;;22.10;9.32;;;;;;;-149.78;100.00;50592.72;4785685;29;20038;-71
2022/03/07 04:21:53;;;;;;;29.73;9.93;;;;;;;-149.78;100.00;50573.16;4806757;29;20046;-71
2022/03/07 04:24:19;;;;;;;26.10;9.40;;;;;;;-149.78;100.00;50551.63;4821943;29;20709;-71
2022/03/07 04:26:45;;;;;;;22.58;8.88;;;;;;;-149.78;100.00;50577.06;4823463;29;20034;-71
2022/03/07 04:29:12;;;;;;;20.80;8.65;;;;;;;-149.78;100.00;50561.41;4821830;29;20061;-71
2022/03/07 04:31:40;;;;;;;25.58;8.43;;;;;;;-149.78;100.00;50596.63;4821204;29;20046;-71
2022/03/07 04:34:09;;;;;;;22.77;8.20;;;;;;;-149.78;100.00;50580.97;4789863;29;20069;-71
2022/03/07 04:36:37;;;;;;;26.70;8.23;;;;;;;-149.78;100.00;50563.38;4803498;29;20035;-71
2022/03/07 04:39:07;;;;;;;16.83;7.30;;;;;;;-149.78;100.00;50553.59;4804793;29;20031;-71
2022/03/07 04:41:33;;;;;;;17.77;6.90;;;;;;;-149.78;100.00;50563.38;4791987;29;20034;-71
2022/03/07 04:43:59;;;;;;;20.83;8.02;;;;;;;-149.78;100.00;50575.09;4809774;29;20630;-71
2022/03/07 04:46:25;;;;;;;20.33;8.77;;;;;;;-149.78;100.00;50584.88;4825026;29;20133;-71
2022/03/07 04:48:51;;;;;;;25.83;9.57;;;;;;;-149.78;100.00;50565.31;4826004;29;20125;-71
2022/03/07 04:51:17;;;;;;;29.67;9.18;;;;;;;-149.78;100.00;50580.97;4809593;29;20061;-71
2022/03/07 04:53:43;;;;;;;29.13;10.48;;;;;;;-149.78;100.00;50534.03;4826080;29;20049;-71
2022/03/07 04:56:09;;;;;;;26.80;8.00;;;;;;;-149.78;100.00;50557.50;4825712;29;20402;-71
2022/03/07 04:58:36;;;;;;;22.33;8.20;;;;;;;-149.78;100.00;50577.06;4825868;29;20034;-71
2022/03/07 05:01:02;;;;;;;22.38;7.57;;;;;;;-149.78;100.00;50537.94;4812912;29;20039;-71
2022/03/07 05:03:28;;;;;;;20.75;7.50;;;;;;;-149.78;100.00;50604.44;4807750;29;20034;-71
2022/03/07 05:05:54;;;;;;;23.33;8.00;;;;;;;-149.78;100.00;50571.19;4791761;29;20042;-71
2022/03/07 05:08:19;;;;;;;25.02;8.85;;;;;;;-149.78;100.00;50551.63;4786542;29;20403;-71
2022/03/07 05:10:45;;;;;;;23.38;8.00;;;;;;;-149.78;100.00;50561.41;4825993;29;20042;-71
2022/03/07 05:13:11;;;;;;;23.63;7.93;;;;;;;-149.78;100.00;50573.16;4826018;29;20480;-71
2022/03/07 05:15:37;;;;;;;27.67;9.40;;;;;;;-149.78;100.00;50600.53;4794553;29;20054;-71
2022/03/07 05:18:04;;;;;;;28.40;9.00;;;;;;;-149.78;100.00;50600.53;4825750;29;20147;-71
2022/03/07 05:20:30;;;;;;;18.85;8.00;;;;;;;-149.78;100.00;50553.59;4824681;29;20126;-71
2022/03/07 05:22:56;;;;;;;23.35;8.38;;;;;;;-149.78;100.00;50553.59;4824409;29;20194;-71
2022/03/07 05:25:22;;;;;;;26.83;8.90;;;;;;;-149.78;100.00;50569.22;4825775;29;20038;-71
2022/03/07 05:27:48;;;;;;;23.63;8.25;;;;;;;-149.78;100.00;50561.41;4809348;29;20708;-71
2022/03/07 05:30:17;;;;;;;22.98;8.88;;;;;;;-149.78;100.00;50537.94;4809574;29;20046;-71
2022/03/07 05:32:47;;;;;;;21.05;8.73;;;;;;;-149.78;100.00;50573.16;4825677;29;20475;-71
2022/03/07 05:35:14;;;;;;;22.55;8.02;;;;;;;-149.78;100.00;50553.59;4825591;29;20642;-71
2022/03/07 05:37:40;;;;;;;25.90;7.80;;;;;;;-149.78;100.00;50549.69;4809253;29;20065;-71
2022/03/07 05:40:08;;;;;;;19.02;7.68;;;;;;;-149.78;100.00;50557.50;4824417;29;20041;-71
2022/03/07 05:42:35;;;;;;;26.52;9.10;;;;;;;-149.78;100.00;50584.88;4825529;29;20035;-71
2022/03/07 05:45:03;;;;;;;23.60;7.82;;;;;;;-149.78;100.00;50547.72;4825410;29;20051;-71
2022/03/07 05:47:29;;;;;;;22.33;7.90;;;;;;;-149.78;100.00;50577.06;4809721;29;20387;-71
2022/03/07 05:49:55;;;;;;;32.90;8.38;;;;;;;-149.78;100.00;50543.81;4802750;29;20042;-72
2022/03/07 05:52:21;;;;;;;18.67;7.30;;;;;;;-149.78;100.00;50557.50;4787907;29;20054;-72
2022/03/07 05:54:46;;;;;;;25.88;8.73;;;;;;;-149.78;100.00;50575.09;4789328;30;20035;-72
2022/03/07 05:57:12;;;;;;;23.20;7.13;;;;;;;-149.78;100.00;50557.50;4788723;29;20412;-72
2022/03/07 05:59:38;;;;;;;19.63;7.65;;;;;;;-149.78;100.00;50608.34;4794332;29;20047;-72
2022/03/07 06:02:04;;;;;;;29.92;9.23;;;;;;;-149.78;100.00;50526.22;4801215;29;20224;-72
2022/03/07 06:04:29;;;;;;;19.77;8.38;;;;;;;-149.78;100.00;50545.75;4788460;29;20038;-71
2022/03/07 06:06:55;;;;;;;23.15;8.90;;;;;;;-149.78;100.00;50561.41;4797168;29;20091;-72
2022/03/07 06:09:21;;;;;;;27.48;8.02;;;;;;;-149.78;100.00;50624.00;4791576;29;20038;-72
2022/03/07 06:11:48;;;;;;;30.15;8.82;;;;;;;-149.78;100.00;50608.34;4825588;29;20111;-72
2022/03/07 06:14:14;;;;;;;17.67;7.57;;;;;;;-149.78;100.00;50557.50;4825631;29;20046;-72
2022/03/07 06:16:40;;;;;;;27.73;8.60;;;;;;;-149.78;100.00;50555.53;4825475;29;20042;-72
2022/03/07 06:19:05;;;;;;;23.95;8.43;;;;;;;-149.78;100.00;50573.16;4825441;29;20127;-72
2022/03/07 06:21:31;;;;;;;24.52;8.65;;;;;;;-149.78;100.00;50557.50;4825498;29;20084;-71
2022/03/07 06:23:58;;;;;;;24.95;9.27;;;;;;;-149.78;100.00;50553.59;4809352;29;20046;-72
2022/03/07 06:26:24;;;;;;;20.38;8.73;;;;;;;-149.78;100.00;50584.88;4818730;29;20496;-72
2022/03/07 06:28:50;;;;;;;21.85;8.52;;;;;;;-149.78;100.00;50565.31;4802928;29;20039;-72
2022/03/07 06:31:16;;;;;;;23.23;9.10;;;;;;;-149.78;100.00;50522.28;4797862;29;20054;-72
2022/03/07 06:33:41;;;;;;;26.17;9.55;;;;;;;-149.78;100.00;50551.63;4787499;29;20059;-72
2022/03/07 06:36:08;;;;;;;26.10;9.75;;;;;;;-149.78;100.00;50565.31;4798077;29;20079;-72
2022/03/07 06:38:35;;;;;;;32.20;10.18;;;;;;;-149.78;100.00;50545.75;4802645;29;20058;-72
2022/03/07 06:41:02;;;;;;;27.67;10.27;;;;;;;-149.78;100.00;50584.88;4800869;29;20035;-71
2022/03/07 06:43:28;;;;;;;31.70;12.52;;;;;;;-149.78;100.00;50545.75;4791478;29;20176;-72
2022/03/07 06:45:54;;;;;;;31.23;12.73;;;;;;;-149.78;100.00;50596.63;4789862;29;20042;-72
2022/03/07 06:48:20;;;;;;;30.15;11.93;;;;;;;-149.78;100.00;50553.59;4803588;29;20045;-72
2022/03/07 06:50:46;;;;;;;28.95;12.40;;;;;;;-149.78;100.00;50565.31;4795997;29;20035;-72
2022/03/07 06:53:12;;;;;;;35.03;11.75;;;;;;;-149.78;100.00;50565.31;4793589;29;20428;-71
2022/03/07 06:55:38;;;;;;;32.47;12.65;;;;;;;-149.78;100.00;50580.97;4802233;29;20038;-72
2022/03/07 06:58:04;;;;;;;31.48;12.20;;;;;;;-149.78;100.00;50573.16;4793380;29;20047;-72
2022/03/07 07:00:30;;;;;;;35.65;13.25;;;;;;;-149.78;100.00;50561.41;4786010;29;20047;-72
2022/03/07 07:02:55;;;;;;;37.20;13.82;;;;;;;-149.78;100.00;50580.97;4796411;29;20041;-72
2022/03/07 07:05:24;;;;;;;35.85;13.77;;;;;;;-149.78;100.00;50547.72;4788144;29;20038;-71
2022/03/07 07:07:50;;;;;;;41.95;14.18;;;;;;;-149.78;100.00;50530.13;4799078;29;20050;-71
2022/03/07 07:10:18;;;;;;;37.58;15.43;;;;;;;-149.78;100.00;50577.06;4805366;29;20087;-71
2022/03/07 07:12:49;;;;;;;37.65;15.05;;;;;;;-149.78;100.00;50569.22;4790529;29;20129;-71
2022/03/07 07:15:16;;;;;;;40.20;13.98;;;;;;;-149.78;100.00;50537.94;4806103;29;20529;-72
2022/03/07 07:17:42;;;;;;;39.13;14.43;;;;;;;-149.78;100.00;50582.94;4806023;29;20134;-71
2022/03/07 07:20:10;;;;;;;32.88;13.95;;;;;;;-149.78;100.00;50537.94;4822798;29;20038;-71
2022/03/07 07:22:36;;;;;;;45.10;16.10;;;;;;;-149.78;100.00;50534.03;4823881;29;20038;-71
2022/03/07 07:25:03;;;;;;;56.60;22.60;;;;;;;-149.78;100.00;50532.06;4821991;29;20045;-71
2022/03/07 07:27:29;;;;;;;71.75;28.13;;;;;;;-149.78;100.00;50577.06;4774443;29;20049;-71
2022/03/07 07:29:55;;;;;;;111.40;39.13;;;;;;;-149.78;100.00;50561.41;4785585;29;20038;-71
2022/03/07 07:32:21;;;;;;;70.47;27.90;;;;;;;-149.78;100.00;50526.22;4786487;29;20047;-71
2022/03/07 07:34:46;;;;;;;81.20;30.08;;;;;;;-149.78;100.00;50557.50;4797438;29;20058;-72
2022/03/07 07:37:12;;;;;;;89.75;36.35;;;;;;;-149.78;100.00;50524.25;4773723;29;20039;-71
2022/03/07 07:39:38;;;;;;;51.90;20.27;;;;;;;-149.78;100.00;50514.47;4790403;29;20130;-70
2022/03/07 07:42:04;;;;;;;51.80;22.15;;;;;;;-149.78;100.00;50569.22;4797906;29;20090;-70
2022/03/07 07:44:30;;;;;;;46.88;18.02;;;;;;;-149.78;100.00;50526.22;4792516;29;20480;-71
2022/03/07 07:46:55;;;;;;;42.45;17.77;;;;;;;-149.78;100.00;50557.50;4794897;29;20484;-70
2022/03/07 07:49:23;;;;;;;48.97;21.10;;;;;;;-149.78;100.00;50551.63;4795749;29;20096;-70
2022/03/07 07:51:50;;;;;;;42.95;18.23;;;;;;;-149.78;100.00;50537.94;4796995;29;20488;-70
2022/03/07 07:54:15;;;;;;;49.55;18.67;;;;;;;-149.78;100.00;50569.22;4784779;30;20415;-71
2022/03/07 07:56:41;;;;;;;42.13;17.00;;;;;;;-149.78;100.00;50534.03;4803291;29;20133;-70
2022/03/07 07:59:07;;;;;;;44.47;17.73;;;;;;;-149.78;100.00;50516.44;4807008;29;20373;-70
2022/03/07 08:01:32;;;;;;;43.63;17.70;;;;;;;-149.78;100.00;50561.41;4809071;29;20039;-70
2022/03/07 08:03:58;;;;;;;45.47;19.05;;;;;;;-149.78;100.00;50555.53;4820640;29;20043;-70
2022/03/07 08:06:25;;;;;;;44.13;18.55;;;;;;;-149.78;100.00;50518.38;4804025;29;20846;-70
2022/03/07 08:08:50;;;;;;;52.38;19.80;;;;;;;-149.78;100.00;50557.50;4762959;29;20038;-70
2022/03/07 08:11:16;;;;;;;47.47;19.75;;;;;;;-149.78;100.00;50534.03;4798815;29;20034;-70
2022/03/07 08:13:42;;;;;;;39.80;18.92;;;;;;;-149.78;100.00;50549.69;4787589;29;20032;-71
2022/03/07 08:16:08;;;;;;;46.58;20.50;;;;;;;-149.78;100.00;50577.06;4810452;29;20115;-71
2022/03/07 08:18:33;;;;;;;50.85;19.35;;;;;;;-149.78;100.00;50577.06;4804391;29;20036;-70
2022/03/07 08:21:02;;;;;;;46.78;19.77;;;;;;;-149.78;100.00;50592.72;4797701;29;20060;-70
2022/03/07 08:23:28;;;;;;;43.35;18.10;;;;;;;-149.78;100.00;50506.66;4799227;29;20086;-70
2022/03/07 08:25:54;;;;;;;55.92;19.90;;;;;;;-149.78;100.00;50545.75;4796854;29;20473;-71
2022/03/07 08:28:21;;;;;;;50.35;19.75;;;;;;;-149.78;100.00;50553.59;4796863;29;20109;-70
2022/03/07 08:30:47;;;;;;;48.75;19.00;;;;;;;-149.78;100.00;50545.75;4792803;29;20066;-71
2022/03/07 08:33:13;;;;;;;49.15;19.00;;;;;;;-149.78;100.00;50539.91;4822312;29;20050;-71
2022/03/07 08:35:39;;;;;;;50.20;20.30;;;;;;;-149.78;100.00;50510.56;4791613;29;20054;-71
2022/03/07 08:38:05;;;;;;;49.42;20.42;;;;;;;-149.78;100.00;50541.84;4808356;29;20031;-71
2022/03/07 08:40:30;;;;;;;43.05;19.45;;;;;;;-149.78;100.00;50549.69;4804101;29;20035;-70
2022/03/07 08:42:56;;;;;;;44.20;20.75;;;;;;;-149.78;100.00;50545.75;4807211;29;20125;-71
2022/03/07 08:45:25;;;;;;;44.20;19.42;;;;;;;-149.78;100.00;50518.38;4807229;29;20035;-71
2022/03/07 08:47:51;;;;;;;44.67;19.45;;;;;;;-149.78;100.00;50518.38;4808316;29;20034;-71
2022/03/07 08:50:18;;;;;;;62.05;22.63;;;;;;;-149.78;100.00;50545.75;4818483;29;20034;-71
2022/03/07 08:52:45;;;;;;;69.38;25.02;;;;;;;-149.78;100.00;50545.75;4792057;29;20411;-71
2022/03/07 08:55:12;;;;;;;50.13;20.10;;;;;;;-149.78;100.00;50534.03;4818534;29;20039;-71
2022/03/07 08:57:38;;;;;;;54.08;19.52;;;;;;;-149.78;100.00;50502.75;4815093;29;20091;-71
2022/03/07 09:00:09;;;;;;;62.33;23.85;;;;;;;-149.78;100.00;50571.19;4792611;29;20398;-71
2022/03/07 09:02:35;;;;;;;98.25;30.33;;;;;;;-149.78;100.00;50549.69;4812104;29;20034;-71
2022/03/07 09:05:01;;;;;;;48.40;19.80;;;;;;;-149.78;100.00;50510.56;4812205;29;20400;-70
2022/03/07 09:07:29;;;;;;;51.10;18.48;;;;;;;-149.78;100.00;50487.09;4797470;29;20031;-70
2022/03/07 09:09:56;;;;;;;50.90;18.92;;;;;;;-149.78;100.00;50510.56;4818686;29;20059;-71
2022/03/07 09:12:25;;;;;;;40.00;18.42;;;;;;;-149.78;100.00;50498.81;4804024;29;20119;-71
2022/03/07 09:14:51;;;;;;;60.67;20.17;;;;;;;-149.78;100.00;50522.28;4805142;29;20130;-71
2022/03/07 09:17:17;;;;;;;64.65;21.25;;;;;;;-149.78;100.00;50522.28;4817457;29;20042;-71
2022/03/07 09:19:42;;;;;;;46.22;14.60;;;;;;;-149.78;100.00;50537.94;4823187;29;20042;-71
2022/03/07 09:22:08;;;;;;;34.90;12.18;;;;;;;-149.78;100.00;50514.47;4785780;29;20043;-71
2022/03/07 09:24:33;;;;;;;32.88;12.65;;;;;;;-149.78;100.00;50545.75;4787120;30;20050;-70
2022/03/07 09:26:59;;;;;;;23.40;9.65;;;;;;;-149.78;100.00;50559.47;4789129;29;20040;-71
2022/03/07 09:29:25;;;;;;;29.25;10.45;;;;;;;-149.78;100.00;50514.47;4816972;29;20057;-71
2022/03/07 09:31:50;;;;;;;24.60;8.20;;;;;;;-149.78;100.00;50537.94;4826361;29;20066;-71
2022/03/07 09:34:16;;;;;;;23.92;8.27;;;;;;;-149.78;100.00;50559.47;4824835;29;20058;-71
2022/03/07 09:36:42;;;;;;;28.08;8.13;;;;;;;-149.78;100.00;50520.34;4825237;29;20043;-71
2022/03/07 09:39:08;;;;;;;24.98;9.25;;;;;;;-149.78;100.00;50502.75;4825825;29;20035;-70
2022/03/07 09:41:34;;;;;;;23.55;8.52;;;;;;;-149.78;100.00;50510.56;4821895;29;20035;-71
2022/03/07 09:44:00;;;;;;;36.80;11.35;;;;;;;-149.78;100.00;50506.66;4824786;29;20053;-71
2022/03/07 09:46:26;;;;;;;33.58;8.57;;;;;;;-149.78;100.00;50508.59;4821914;29;20379;-71
2022/03/07 09:48:53;;;;;;;21.13;7.47;;;;;;;-149.78;100.00;50537.94;4821692;29;20038;-71
2022/03/07 09:51:19;;;;;;;26.48;9.23;;;;;;;-149.78;100.00;50502.75;4820514;29;20042;-71
2022/03/07 09:53:44;;;;;;;16.98;7.63;;;;;;;-149.78;100.00;50522.28;4809385;29;20057;-71
2022/03/07 09:56:10;;;;;;;23.05;7.65;;;;;;;-149.78;100.00;50506.66;4791531;29;20104;-71
2022/03/07 09:58:37;;;;;;;17.02;6.70;;;;;;;-149.78;100.00;50526.22;4815274;29;20127;-71
2022/03/07 10:01:09;;;;;;;33.95;9.88;;;;;;;-149.78;100.00;50506.66;4809495;29;20094;-71
2022/03/07 10:03:35;;;;;;;19.17;6.85;;;;;;;-149.78;100.00;50485.13;4825793;29;20065;-71
2022/03/07 10:06:01;;;;;;;29.25;9.40;;;;;;;-149.78;100.00;50489.03;4807733;29;20066;-70
2022/03/07 10:08:29;;;;;;;24.15;7.82;;;;;;;-149.78;100.00;50498.81;4812124;29;20062;-71
2022/03/07 10:10:56;;;;;;;18.58;7.22;;;;;;;-149.78;100.00;50502.75;4825582;29;20090;-71
2022/03/07 10:13:22;;;;;;;20.90;7.32;;;;;;;-149.78;100.00;50502.75;4810278;29;20042;-70
2022/03/07 10:15:56;;;;;;;23.38;7.47;;;;;;;-149.78;100.00;50506.66;4807342;29;20046;-71
2022/03/07 10:18:23;;;;;;;18.15;6.50;;;;;;;-149.78;100.00;50491.00;4804748;29;20038;-71
2022/03/07 10:20:54;;;;;;;18.75;7.75;;;;;;;-149.78;100.00;50506.66;4800333;29;20071;-71
2022/03/07 10:23:27;;;;;;;16.70;7.28;;;;;;;-149.78;100.00;50467.53;4801841;29;20627;-70
2022/03/07 10:26:05;;;;;;;30.25;6.82;;;;;;;-149.78;100.00;50491.00;4807506;29;20039;-71
2022/03/07 10:28:35;;;;;;;26.05;7.35;;;;;;;-149.78;100.00;50500.78;4793915;29;20073;-70
2022/03/07 10:31:13;;;;;;;22.55;8.07;;;;;;;-149.78;100.00;50500.78;4808745;29;20037;-70
2022/03/07 10:33:39;;;;;;;19.60;7.25;;;;;;;-149.78;100.00;50471.44;4816002;29;20054;-70
2022/03/07 10:36:05;;;;;;;22.55;6.90;;;;;;;-149.78;100.00;50479.28;4795406;29;20038;-70
2022/03/07 10:38:31;;;;;;;19.55;6.65;;;;;;;-149.78;100.00;50491.00;4786233;29;20404;-70
2022/03/07 10:40:57;;;;;;;17.33;7.03;;;;;;;-149.78;100.00;50487.09;4794884;29;20058;-70
2022/03/07 10:43:23;;;;;;;22.48;8.23;;;;;;;-149.78;100.00;50518.38;4799954;29;20539;-71
2022/03/07 10:46:00;;;;;;;27.45;8.63;;;;;;;-149.78;100.00;50510.56;4804668;29;20045;-70
2022/03/07 10:48:29;;;;;;;17.27;7.88;;;;;;;-149.78;100.00;50498.81;4796940;29;20039;-70
2022/03/07 10:50:58;;;;;;;18.30;8.00;;;;;;;-149.78;100.00;50494.91;4801183;29;20055;-72
2022/03/07 10:53:25;;;;;;;16.50;7.10;;;;;;;-149.78;100.00;50461.66;4803105;29;20192;-70